createdAt,value
2022-12-11T00:01:23.003Z,11.45
2022-12-11T00:03:52.169Z,8.70
2022-12-11T00:06:31.332Z,9.17
2022-12-11T00:09:02.784Z,9.00
2022-12-11T00:11:31.563Z,7.95
2022-12-11T00:14:00.276Z,7.88
2022-12-11T00:16:29.132Z,8.40
2022-12-11T00:18:57.941Z,7.67
2022-12-11T00:21:28.353Z,8.00
2022-12-11T00:23:57.464Z,10.23
2022-12-11T00:26:26.335Z,8.13
2022-12-11T00:28:58.482Z,8.02
2022-12-11T00:31:27.366Z,10.10
2022-12-11T00:33:56.763Z,6.93
2022-12-11T00:36:28.923Z,5.53
2022-12-11T00:38:58.038Z,9.45
2022-12-11T00:41:27.092Z,12.38
2022-12-11T00:43:56.266Z,10.93
2022-12-11T00:46:25.095Z,10.43
2022-12-11T00:48:54.081Z,9.80
2022-12-11T00:51:23.182Z,6.07
2022-12-11T00:53:54.075Z,8.65
2022-12-11T00:56:24.709Z,6.50
2022-12-11T00:58:53.586Z,6.25
2022-12-11T01:01:25.357Z,6.30
2022-12-11T01:03:55.227Z,7.88
2022-12-11T01:06:26.704Z,7.18
2022-12-11T01:09:12.628Z,8.23
2022-12-11T01:11:42.868Z,5.95
2022-12-11T01:14:15.588Z,8.70
2022-12-11T01:16:44.755Z,7.97
2022-12-11T01:19:13.667Z,8.68
2022-12-11T01:21:42.692Z,5.90
2022-12-11T01:24:12.833Z,5.78
2022-12-11T01:26:41.712Z,4.88
2022-12-11T01:29:10.525Z,5.80
2022-12-11T01:31:40.017Z,6.38
2022-12-11T01:34:08.853Z,7.70
2022-12-11T01:36:37.701Z,7.07
2022-12-11T01:39:06.551Z,28.90
2022-12-11T01:41:36.733Z,8.15
2022-12-11T01:44:09.906Z,6.20
2022-12-11T01:46:39.418Z,10.20
2022-12-11T01:49:13.081Z,5.88
2022-12-11T01:51:50.494Z,5.63
2022-12-11T01:54:24.148Z,7.57
2022-12-11T01:56:59.277Z,5.82
2022-12-11T01:59:34.191Z,7.40
2022-12-11T02:02:09.129Z,8.02
2022-12-11T02:04:41.544Z,4.32
2022-12-11T02:07:12.206Z,5.53
2022-12-11T02:09:46.392Z,6.85
2022-12-11T02:12:27.871Z,3.83
2022-12-11T02:15:13.674Z,4.70
2022-12-11T02:17:49.867Z,4.75
2022-12-11T02:20:29.557Z,3.20
2022-12-11T02:23:34.624Z,7.35
2022-12-11T02:26:21.809Z,6.90
2022-12-11T02:28:58.026Z,6.97
2022-12-11T02:31:37.586Z,6.28
2022-12-11T02:34:14.421Z,6.43
2022-12-11T02:36:49.966Z,4.70
2022-12-11T02:39:22.596Z,8.70
2022-12-11T02:41:53.338Z,8.75
2022-12-11T02:44:28.735Z,5.40
2022-12-11T02:46:59.551Z,7.03
2022-12-11T02:49:30.310Z,8.68
2022-12-11T02:52:03.599Z,5.80
2022-12-11T02:54:36.890Z,7.80
2022-12-11T02:57:12.880Z,6.70
2022-12-11T02:59:46.533Z,6.75
2022-12-11T03:02:18.937Z,6.38
2022-12-11T03:04:49.894Z,7.90
2022-12-11T03:07:25.148Z,7.72
2022-12-11T03:09:54.670Z,6.70
2022-12-11T03:12:29.206Z,6.40
2022-12-11T03:15:05.409Z,9.73
2022-12-11T03:17:45.779Z,7.40
2022-12-11T03:20:26.168Z,6.13
2022-12-11T03:23:05.832Z,4.95
2022-12-11T03:25:45.880Z,9.68
2022-12-11T03:28:21.331Z,6.97
2022-12-11T03:30:55.681Z,7.20
2022-12-11T03:33:32.243Z,5.45
2022-12-11T03:36:07.181Z,7.82
2022-12-11T03:38:42.837Z,9.25
2022-12-11T03:41:14.996Z,9.65
2022-12-11T03:43:44.374Z,8.60
2022-12-11T03:46:17.551Z,11.73
2022-12-11T03:48:50.063Z,8.23
2022-12-11T03:51:19.719Z,10.35
2022-12-11T03:53:49.998Z,11.60
2022-12-11T03:56:22.246Z,10.00
2022-12-11T03:58:51.152Z,11.45
2022-12-11T04:01:21.451Z,9.18
2022-12-11T04:03:50.431Z,7.72
2022-12-11T04:06:19.212Z,7.82
2022-12-11T04:08:47.974Z,9.50
2022-12-11T04:11:33.907Z,9.07
2022-12-11T04:14:20.328Z,5.70
2022-12-11T04:16:50.642Z,9.13
2022-12-11T04:19:37.705Z,7.70
2022-12-11T04:22:26.568Z,4.47
2022-12-11T04:24:55.518Z,8.68
2022-12-11T04:27:42.112Z,5.22
2022-12-11T04:30:18.531Z,8.18
2022-12-11T04:32:49.326Z,8.05
2022-12-11T04:35:18.743Z,8.63
2022-12-11T04:37:48.339Z,8.73
2022-12-11T04:40:20.247Z,11.32
2022-12-11T04:42:49.135Z,9.13
2022-12-11T04:45:18.119Z,8.77
2022-12-11T04:47:48.529Z,9.13
2022-12-11T04:50:20.608Z,8.25
2022-12-11T04:52:49.546Z,7.53
2022-12-11T04:55:18.809Z,9.80
2022-12-11T04:57:47.750Z,7.47
2022-12-11T05:00:19.708Z,9.93
2022-12-11T05:02:51.327Z,9.57
2022-12-11T05:05:21.878Z,10.80
2022-12-11T05:07:50.722Z,8.95
2022-12-11T05:10:19.942Z,10.27
2022-12-11T05:12:48.649Z,8.77
2022-12-11T05:15:17.473Z,9.68
2022-12-11T05:17:46.260Z,11.73
2022-12-11T05:20:16.960Z,11.27
2022-12-11T05:22:46.290Z,9.35
2022-12-11T05:25:15.125Z,7.03
2022-12-11T05:27:44.047Z,7.65
2022-12-11T05:30:13.465Z,8.60
2022-12-11T05:32:42.481Z,7.57
2022-12-11T05:35:11.785Z,12.38
2022-12-11T05:37:42.222Z,9.33
2022-12-11T05:40:13.211Z,10.23
2022-12-11T05:42:42.718Z,6.95
2022-12-11T05:45:12.997Z,10.95
2022-12-11T05:47:44.651Z,6.38
2022-12-11T05:50:13.483Z,7.50
2022-12-11T05:52:44.384Z,10.55
2022-12-11T05:55:13.450Z,7.65
2022-12-11T05:57:42.448Z,9.57
2022-12-11T06:00:14.176Z,7.00
2022-12-11T06:02:43.203Z,8.13
2022-12-11T06:05:12.208Z,9.70
2022-12-11T06:07:42.560Z,15.77
2022-12-11T06:10:11.936Z,14.43
2022-12-11T06:12:41.423Z,7.07
2022-12-11T06:15:14.072Z,12.40
2022-12-11T06:17:42.859Z,8.60
2022-12-11T06:20:12.731Z,8.90
2022-12-11T06:22:42.973Z,9.55
2022-12-11T06:25:11.938Z,11.75
2022-12-11T06:27:41.586Z,12.17
2022-12-11T06:30:12.521Z,9.50
2022-12-11T06:32:42.209Z,12.13
2022-12-11T06:35:11.935Z,17.58
2022-12-11T06:37:42.601Z,19.27
2022-12-11T06:40:12.999Z,18.63
2022-12-11T06:42:41.885Z,15.13
2022-12-11T06:45:12.372Z,15.25
2022-12-11T06:47:41.556Z,14.40
2022-12-11T06:50:11.753Z,13.05
2022-12-11T06:52:40.491Z,14.57
2022-12-11T06:55:11.420Z,13.70
2022-12-11T06:57:41.929Z,14.00
2022-12-11T07:00:12.741Z,14.65
2022-12-11T07:02:41.711Z,14.43
2022-12-11T07:05:11.367Z,15.33
2022-12-11T07:07:43.131Z,16.52
2022-12-11T07:10:13.690Z,14.70
2022-12-11T07:12:44.248Z,13.57
2022-12-11T07:15:13.299Z,11.30
2022-12-11T07:17:42.553Z,11.00
2022-12-11T07:20:12.255Z,12.27
2022-12-11T07:22:46.278Z,13.40
2022-12-11T07:25:17.258Z,11.85
2022-12-11T07:27:46.053Z,14.25
2022-12-11T07:30:15.678Z,10.17
2022-12-11T07:32:44.736Z,11.52
2022-12-11T07:35:13.829Z,10.23
2022-12-11T07:37:42.938Z,10.82
2022-12-11T07:40:13.605Z,15.00
2022-12-11T07:42:46.242Z,14.23
2022-12-11T07:45:15.617Z,15.07
2022-12-11T07:47:44.444Z,21.15
2022-12-11T07:50:13.259Z,14.88
2022-12-11T07:52:41.991Z,14.10
2022-12-11T07:55:11.766Z,11.83
2022-12-11T07:57:41.281Z,12.95
2022-12-11T08:00:13.229Z,16.20
2022-12-11T08:02:42.020Z,8.18
2022-12-11T08:05:13.252Z,14.85
2022-12-11T08:07:43.957Z,15.73
2022-12-11T08:10:13.177Z,12.30
2022-12-11T08:12:42.631Z,17.60
2022-12-11T08:15:13.932Z,15.45
2022-12-11T08:17:43.106Z,13.32
2022-12-11T08:20:12.429Z,13.37
2022-12-11T08:22:41.122Z,12.05
2022-12-11T08:25:10.964Z,13.93
2022-12-11T08:27:39.847Z,13.60
2022-12-11T08:30:12.787Z,6.03
2022-12-11T08:32:41.605Z,14.03
2022-12-11T08:35:12.108Z,14.10
2022-12-11T08:37:41.072Z,14.60
2022-12-11T08:40:13.500Z,14.57
2022-12-11T08:42:42.316Z,13.00
2022-12-11T08:45:13.595Z,14.70
2022-12-11T08:47:42.547Z,22.05
2022-12-11T08:50:12.230Z,16.52
2022-12-11T08:52:41.167Z,18.60
2022-12-11T08:55:11.629Z,14.88
2022-12-11T08:57:41.597Z,19.17
2022-12-11T09:00:16.481Z,18.95
2022-12-11T09:02:45.385Z,13.82
2022-12-11T09:05:14.268Z,13.52
2022-12-11T09:07:43.067Z,11.70
2022-12-11T09:10:12.293Z,10.27
2022-12-11T09:12:41.262Z,10.65
2022-12-11T09:15:11.014Z,15.32
2022-12-11T09:17:41.237Z,11.38
2022-12-11T09:20:11.009Z,9.98
2022-12-11T09:22:39.904Z,12.53
2022-12-11T09:25:10.002Z,12.25
2022-12-11T09:27:39.024Z,9.98
2022-12-11T09:30:09.939Z,11.95
2022-12-11T09:32:40.139Z,11.13
2022-12-11T09:35:11.513Z,8.60
2022-12-11T09:37:40.721Z,8.05
2022-12-11T09:40:16.183Z,9.35
2022-12-11T09:42:55.806Z,10.90
2022-12-11T09:45:27.949Z,10.15
2022-12-11T09:47:58.336Z,14.80
2022-12-11T09:50:31.344Z,9.82
2022-12-11T09:53:08.615Z,11.75
2022-12-11T09:55:55.546Z,14.35
2022-12-11T09:58:34.470Z,13.18
2022-12-11T10:01:09.750Z,10.63
2022-12-11T10:04:18.263Z,5.82
2022-12-11T10:07:05.275Z,9.18
2022-12-11T10:09:50.800Z,12.88
2022-12-11T10:12:38.424Z,10.73
2022-12-11T10:15:42.482Z,7.43
2022-12-11T10:18:17.679Z,7.57
2022-12-11T10:20:51.266Z,11.05
2022-12-11T10:23:28.953Z,12.05
2022-12-11T10:26:09.143Z,10.32
2022-12-11T10:28:38.622Z,10.57
2022-12-11T10:31:19.543Z,11.95
2022-12-11T10:34:14.363Z,9.50
2022-12-11T10:36:45.620Z,10.23
2022-12-11T10:39:19.434Z,10.25
2022-12-11T10:41:52.218Z,10.83
2022-12-11T10:44:23.587Z,11.45
2022-12-11T10:47:06.581Z,13.52
2022-12-11T10:49:37.953Z,11.65
2022-12-11T10:52:24.853Z,10.20
2022-12-11T10:55:03.422Z,14.07
2022-12-11T10:57:37.151Z,15.23
2022-12-11T11:00:08.272Z,9.05
2022-12-11T11:02:40.441Z,10.05
2022-12-11T11:05:19.214Z,11.60
2022-12-11T11:08:19.373Z,10.47
2022-12-11T11:10:57.479Z,13.00
2022-12-11T11:13:29.390Z,7.97
2022-12-11T11:16:03.988Z,12.82
2022-12-11T11:18:34.081Z,13.73
2022-12-11T11:21:09.005Z,11.83
2022-12-11T11:23:46.221Z,11.90
2022-12-11T11:26:16.493Z,12.57
2022-12-11T11:28:53.513Z,14.80
2022-12-11T11:31:32.618Z,15.20
2022-12-11T11:34:05.320Z,13.83
2022-12-11T11:36:38.010Z,14.65
2022-12-11T11:39:28.103Z,19.15
2022-12-11T11:42:06.119Z,14.15
2022-12-11T11:44:40.915Z,17.05
2022-12-11T11:47:18.489Z,18.30
2022-12-11T11:49:59.683Z,22.77
2022-12-11T11:52:38.021Z,17.35
2022-12-11T11:55:21.758Z,13.90
2022-12-11T11:58:02.278Z,20.00
2022-12-11T12:00:34.089Z,16.40
2022-12-11T12:03:11.065Z,15.85
2022-12-11T12:05:56.775Z,13.48
2022-12-11T12:08:54.576Z,17.98
2022-12-11T12:11:37.693Z,14.60
2022-12-11T12:14:50.475Z,13.33
2022-12-11T12:17:26.472Z,10.15
2022-12-11T12:20:11.917Z,15.63
2022-12-11T12:23:05.112Z,14.43
2022-12-11T12:25:42.085Z,8.23
2022-12-11T12:28:31.697Z,17.43
2022-12-11T12:31:18.575Z,13.40
2022-12-11T12:34:00.142Z,14.23
2022-12-11T12:36:41.359Z,13.10
2022-12-11T12:39:21.705Z,9.23
2022-12-11T12:42:07.443Z,15.30
2022-12-11T12:44:52.130Z,17.30
2022-12-11T12:47:22.245Z,11.18
2022-12-11T12:49:54.416Z,14.60
2022-12-11T12:52:32.076Z,16.02
2022-12-11T12:55:22.706Z,14.50
2022-12-11T12:57:55.811Z,10.65
2022-12-11T13:00:36.153Z,12.30
2022-12-11T13:03:18.364Z,13.48
2022-12-11T13:06:00.534Z,12.02
2022-12-11T13:08:35.913Z,11.20
2022-12-11T13:11:09.203Z,16.50
2022-12-11T13:13:41.854Z,14.60
2022-12-11T13:16:34.732Z,9.30
2022-12-11T13:19:03.781Z,13.23
2022-12-11T13:21:35.747Z,7.57
2022-12-11T13:24:27.421Z,13.75
2022-12-11T13:26:57.074Z,10.90
2022-12-11T13:29:35.821Z,10.05
2022-12-11T13:32:24.251Z,13.57
2022-12-11T13:34:58.081Z,12.17
2022-12-11T13:37:33.226Z,11.43
2022-12-11T13:40:09.232Z,13.85
2022-12-11T13:42:49.645Z,14.60
2022-12-11T13:45:28.070Z,17.27
2022-12-11T13:48:00.245Z,14.23
2022-12-11T13:50:34.549Z,16.67
2022-12-11T13:53:05.036Z,14.60
2022-12-11T13:55:35.812Z,13.05
2022-12-11T13:58:04.618Z,12.68
2022-12-11T14:00:34.406Z,11.63
2022-12-11T14:03:08.495Z,10.13
2022-12-11T14:05:37.791Z,10.25
2022-12-11T14:08:11.338Z,11.20
2022-12-11T14:10:41.628Z,13.88
2022-12-11T14:13:23.886Z,11.33
2022-12-11T14:15:53.967Z,12.93
2022-12-11T14:18:29.139Z,9.57
2022-12-11T14:21:00.856Z,11.05
2022-12-11T14:23:32.749Z,10.13
2022-12-11T14:26:05.018Z,9.77
2022-12-11T14:28:43.466Z,7.32
2022-12-11T14:31:19.450Z,6.47
2022-12-11T14:33:54.350Z,9.52
2022-12-11T14:36:24.827Z,8.18
2022-12-11T14:39:01.574Z,9.57
2022-12-11T14:41:44.113Z,11.23
2022-12-11T14:44:18.678Z,12.20
2022-12-11T14:46:51.537Z,8.95
2022-12-11T14:49:32.806Z,11.25
2022-12-11T14:52:02.785Z,11.37
2022-12-11T14:54:38.761Z,9.70
2022-12-11T14:57:09.617Z,9.40
2022-12-11T14:59:47.223Z,10.35
2022-12-11T15:02:31.165Z,8.18
2022-12-11T15:05:23.624Z,10.27
2022-12-11T15:07:59.763Z,8.85
2022-12-11T15:10:37.658Z,11.60
2022-12-11T15:13:08.824Z,12.38
2022-12-11T15:15:46.660Z,11.38
2022-12-11T15:18:25.567Z,5.93
2022-12-11T15:21:01.441Z,9.65
2022-12-11T15:23:31.374Z,12.10
2022-12-11T15:26:03.974Z,9.00
2022-12-11T15:28:36.551Z,14.18
2022-12-11T15:31:09.211Z,14.77
2022-12-11T15:33:48.153Z,12.23
2022-12-11T15:36:27.811Z,11.13
2022-12-11T15:38:56.545Z,14.43
2022-12-11T15:41:27.000Z,13.88
2022-12-11T15:43:59.993Z,12.73
2022-12-11T15:46:29.283Z,13.85
2022-12-11T15:48:59.091Z,13.82
2022-12-11T15:51:29.254Z,13.95
2022-12-11T15:53:58.160Z,11.30
2022-12-11T15:56:27.456Z,10.10
2022-12-11T15:59:01.530Z,12.13
2022-12-11T16:01:30.299Z,10.43
2022-12-11T16:04:03.333Z,13.50
2022-12-11T16:06:35.749Z,12.35
2022-12-11T16:09:05.749Z,10.10
2022-12-11T16:11:34.567Z,6.00
2022-12-11T16:14:04.563Z,9.15
2022-12-11T16:16:37.488Z,7.50
2022-12-11T16:19:06.338Z,5.65
2022-12-11T16:21:36.526Z,8.73
2022-12-11T16:24:05.872Z,8.10
2022-12-11T16:26:34.803Z,8.07
2022-12-11T16:29:03.776Z,12.68
2022-12-11T16:31:33.657Z,7.10
2022-12-11T16:34:02.604Z,10.17
2022-12-11T16:36:31.458Z,10.25
2022-12-11T16:39:01.867Z,7.78
2022-12-11T16:41:30.631Z,9.70
2022-12-11T16:44:02.234Z,8.30
2022-12-11T16:46:31.277Z,11.83
2022-12-11T16:49:00.198Z,7.20
2022-12-11T16:51:29.178Z,6.65
2022-12-11T16:53:58.301Z,14.13
2022-12-11T16:56:28.657Z,11.68
2022-12-11T16:58:57.984Z,8.17
2022-12-11T17:01:27.391Z,6.80
2022-12-11T17:03:56.242Z,8.43
2022-12-11T17:06:25.213Z,14.63
2022-12-11T17:08:54.393Z,13.05
2022-12-11T17:11:26.307Z,12.10
2022-12-11T17:13:58.225Z,13.32
2022-12-11T17:16:30.522Z,13.35
2022-12-11T17:18:59.842Z,13.82
2022-12-11T17:21:28.788Z,10.85
2022-12-11T17:23:57.518Z,15.97
2022-12-11T17:26:28.193Z,9.73
2022-12-11T17:28:59.687Z,10.48
2022-12-11T17:31:28.635Z,10.40
2022-12-11T17:34:00.706Z,8.45
2022-12-11T17:36:29.750Z,13.40
2022-12-11T17:38:58.545Z,9.85
2022-12-11T17:41:27.590Z,11.20
2022-12-11T17:43:58.598Z,10.60
2022-12-11T17:46:28.094Z,9.93
2022-12-11T17:49:00.104Z,16.23
2022-12-11T17:51:29.027Z,15.25
2022-12-11T17:53:58.522Z,12.40
2022-12-11T17:56:28.080Z,13.60
2022-12-11T17:58:59.472Z,12.50
2022-12-11T18:01:28.679Z,13.30
2022-12-11T18:04:00.502Z,13.20
2022-12-11T18:06:31.006Z,9.40
2022-12-11T18:09:00.091Z,10.82
2022-12-11T18:11:28.977Z,8.98
2022-12-11T18:13:59.820Z,15.70
2022-12-11T18:16:33.027Z,9.45
2022-12-11T18:19:02.454Z,10.93
2022-12-11T18:21:34.599Z,15.07
2022-12-11T18:24:04.456Z,13.88
2022-12-11T18:26:33.396Z,10.10
2022-12-11T18:29:07.469Z,17.00
2022-12-11T18:31:42.137Z,11.15
2022-12-11T18:34:12.440Z,20.92
2022-12-11T18:36:42.159Z,16.63
2022-12-11T18:39:11.991Z,16.20
2022-12-11T18:41:40.736Z,14.48
2022-12-11T18:44:11.140Z,19.45
2022-12-11T18:46:40.594Z,9.85
2022-12-11T18:49:09.442Z,18.02
2022-12-11T18:51:38.380Z,10.77
2022-12-11T18:54:07.326Z,11.77
2022-12-11T18:56:36.644Z,10.77
2022-12-11T18:59:05.824Z,9.05
2022-12-11T19:01:36.876Z,9.25
2022-12-11T19:04:10.722Z,10.50
2022-12-11T19:06:40.211Z,9.52
2022-12-11T19:09:10.411Z,11.82
2022-12-11T19:11:43.643Z,6.88
2022-12-11T19:14:13.610Z,7.38
2022-12-11T19:16:45.796Z,8.67
2022-12-11T19:19:16.693Z,14.10
2022-12-11T19:21:46.707Z,11.27
2022-12-11T19:24:19.502Z,11.30
2022-12-11T19:26:49.330Z,4.78
2022-12-11T19:29:23.300Z,6.23
2022-12-11T19:31:54.076Z,7.15
2022-12-11T19:34:23.369Z,7.57
2022-12-11T19:36:52.283Z,9.30
2022-12-11T19:39:22.163Z,8.60
2022-12-11T19:41:51.278Z,5.37
2022-12-11T19:44:20.019Z,6.38
2022-12-11T19:46:48.890Z,6.75
2022-12-11T19:49:19.186Z,7.68
2022-12-11T19:51:47.938Z,11.60
2022-12-11T19:54:18.986Z,6.20
2022-12-11T19:56:48.046Z,5.53
2022-12-11T19:59:19.218Z,6.32
2022-12-11T20:01:49.482Z,7.93
2022-12-11T20:04:20.262Z,4.65
2022-12-11T20:06:49.721Z,4.27
2022-12-11T20:09:19.284Z,5.80
2022-12-11T20:11:48.702Z,6.47
2022-12-11T20:14:24.833Z,2.72
2022-12-11T20:17:13.884Z,6.47
2022-12-11T20:19:45.327Z,4.57
2022-12-11T20:22:14.732Z,5.65
2022-12-11T20:24:43.587Z,5.63
2022-12-11T20:27:12.757Z,5.72
2022-12-11T20:29:41.668Z,5.53
2022-12-11T20:32:12.475Z,3.60
2022-12-11T20:34:41.364Z,6.93
2022-12-11T20:37:11.622Z,4.88
2022-12-11T20:39:40.588Z,6.25
2022-12-11T20:42:11.884Z,3.25
2022-12-11T20:44:44.142Z,6.47
2022-12-11T20:47:19.795Z,4.35
2022-12-11T20:49:49.655Z,3.75
2022-12-11T20:52:20.425Z,4.35
2022-12-11T20:54:49.230Z,5.60
2022-12-11T20:57:18.017Z,6.70
2022-12-11T20:59:47.400Z,7.53
2022-12-11T21:02:16.134Z,3.85
2022-12-11T21:04:44.951Z,6.85
2022-12-11T21:07:13.843Z,4.18
2022-12-11T21:09:44.063Z,6.40
2022-12-11T21:12:12.772Z,7.93
2022-12-11T21:14:42.740Z,6.03
2022-12-11T21:17:11.470Z,4.85
2022-12-11T21:19:40.891Z,4.80
2022-12-11T21:22:09.787Z,8.00
2022-12-11T21:24:39.063Z,4.45
2022-12-11T21:27:09.386Z,4.07
2022-12-11T21:29:38.344Z,6.97
2022-12-11T21:32:07.732Z,5.72
2022-12-11T21:34:37.874Z,3.87
2022-12-11T21:37:07.559Z,3.28
2022-12-11T21:39:39.263Z,6.07
2022-12-11T21:42:10.292Z,2.90
2022-12-11T21:47:28.869Z,4.00
2022-12-11T21:49:57.504Z,4.10
2022-12-11T21:52:26.284Z,2.88
2022-12-11T21:54:54.953Z,4.28
2022-12-11T21:57:26.857Z,3.30
2022-12-11T21:59:55.818Z,7.40
2022-12-11T22:02:24.738Z,5.03
2022-12-11T22:04:53.708Z,3.20
2022-12-11T22:07:24.001Z,4.10
2022-12-11T22:09:52.711Z,2.30
2022-12-11T22:12:28.926Z,4.00
2022-12-11T22:14:59.394Z,2.15
2022-12-11T22:17:29.222Z,6.03
2022-12-11T22:19:57.940Z,2.33
2022-12-11T22:22:26.964Z,2.88
2022-12-11T22:24:56.484Z,4.17
2022-12-11T22:27:26.725Z,4.93
2022-12-11T22:29:56.093Z,2.90
2022-12-11T22:32:25.279Z,5.05
2022-12-11T22:34:54.235Z,1.80
2022-12-11T22:37:23.054Z,5.13
2022-12-11T22:39:52.077Z,3.15
2022-12-11T22:42:20.977Z,4.25
2022-12-11T22:44:51.081Z,4.80
2022-12-11T22:47:19.977Z,4.15
2022-12-11T22:49:48.668Z,3.87
2022-12-11T22:52:17.465Z,3.30
2022-12-11T22:54:47.205Z,1.55
2022-12-11T22:57:16.129Z,4.65
2022-12-11T22:59:44.828Z,4.28
2022-12-11T23:02:15.448Z,3.53
2022-12-11T23:04:47.560Z,6.47
2022-12-11T23:07:17.102Z,3.15
2022-12-11T23:09:50.464Z,4.68
2022-12-11T23:12:19.861Z,4.20
2022-12-11T23:14:49.363Z,5.20
2022-12-11T23:17:21.266Z,2.42
2022-12-11T23:19:50.097Z,2.08
2022-12-11T23:22:19.442Z,4.93
2022-12-11T23:24:48.146Z,2.50
2022-12-11T23:27:16.874Z,4.70
2022-12-11T23:29:45.863Z,2.83
2022-12-11T23:32:14.546Z,2.10
2022-12-11T23:34:44.656Z,5.03
2022-12-11T23:37:16.047Z,2.72
2022-12-11T23:39:47.669Z,6.37
2022-12-11T23:42:16.520Z,4.35
2022-12-11T23:44:45.461Z,5.32
2022-12-11T23:47:14.852Z,2.97
2022-12-11T23:49:48.581Z,8.57
2022-12-11T23:52:20.689Z,2.63
2022-12-11T23:54:55.154Z,2.28
2022-12-11T23:57:24.553Z,5.88
2022-12-11T23:59:54.529Z,5.30
